createdAt,value
2022-12-20T00:02:05.372Z,-1.47
2022-12-20T00:04:33.830Z,-1.52
2022-12-20T00:07:01.895Z,-1.49
2022-12-20T00:09:30.219Z,-1.51
2022-12-20T00:11:58.468Z,-1.42
2022-12-20T00:14:26.565Z,-1.44
2022-12-20T00:16:56.127Z,-1.49
2022-12-20T00:19:24.239Z,-1.52
2022-12-20T00:21:52.411Z,-1.44
2022-12-20T00:24:25.906Z,-1.39
2022-12-20T00:26:54.608Z,-1.34
2022-12-20T00:29:22.721Z,-1.41
2022-12-20T00:31:50.957Z,-1.39
2022-12-20T00:34:21.138Z,-1.37
2022-12-20T00:36:49.300Z,-1.29
2022-12-20T00:39:17.540Z,-1.28
2022-12-20T00:41:45.690Z,-1.31
2022-12-20T00:44:13.823Z,-1.31
2022-12-20T00:46:42.078Z,-1.27
2022-12-20T00:49:10.237Z,-1.30
2022-12-20T00:51:39.689Z,-1.29
2022-12-20T00:54:07.806Z,-1.28
2022-12-20T00:56:35.918Z,-1.39
2022-12-20T00:59:04.006Z,-1.32
2022-12-20T01:01:34.998Z,-1.36
2022-12-20T01:04:03.845Z,-1.34
2022-12-20T01:06:33.032Z,-1.33
2022-12-20T01:09:02.849Z,-1.33
2022-12-20T01:11:32.975Z,-1.40
2022-12-20T01:14:03.819Z,-1.30
2022-12-20T01:16:35.612Z,-1.49
2022-12-20T01:19:04.649Z,-1.39
2022-12-20T01:21:32.960Z,-1.44
2022-12-20T01:24:02.503Z,-1.45
2022-12-20T01:26:31.566Z,-1.52
2022-12-20T01:29:01.575Z,-1.49
2022-12-20T01:31:31.151Z,-1.39
2022-12-20T01:34:01.106Z,-1.35
2022-12-20T01:36:31.587Z,-1.31
2022-12-20T01:39:00.981Z,-1.29
2022-12-20T01:41:32.701Z,-1.36
2022-12-20T01:44:03.300Z,-1.43
2022-12-20T01:46:33.591Z,-1.43
2022-12-20T01:49:06.946Z,-1.40
2022-12-20T01:51:38.084Z,-1.49
2022-12-20T01:54:11.948Z,-1.56
2022-12-20T01:56:44.683Z,-1.52
2022-12-20T01:59:14.378Z,-1.49
2022-12-20T02:01:43.315Z,-1.46
2022-12-20T02:04:11.815Z,-1.41
2022-12-20T02:06:40.329Z,-1.37
2022-12-20T02:09:09.460Z,-1.41
2022-12-20T02:12:06.412Z,-1.52
2022-12-20T02:14:49.343Z,-1.61
2022-12-20T02:17:29.963Z,-1.58
2022-12-20T02:20:58.854Z,-1.49
2022-12-20T02:24:08.583Z,-1.55
2022-12-20T02:27:08.317Z,-1.48
2022-12-20T02:29:40.533Z,-1.46
2022-12-20T02:32:16.628Z,-1.53
2022-12-20T02:34:45.326Z,-1.49
2022-12-20T02:37:13.761Z,-1.44
2022-12-20T02:39:43.643Z,-1.37
2022-12-20T02:42:13.619Z,-1.26
2022-12-20T02:45:02.735Z,-1.08
2022-12-20T02:47:35.798Z,-0.88
2022-12-20T02:50:05.652Z,-0.83
2022-12-20T02:52:34.655Z,-0.73
2022-12-20T02:55:04.874Z,-0.69
2022-12-20T02:57:39.125Z,-0.67
2022-12-20T03:00:11.906Z,-0.63
2022-12-20T03:02:59.685Z,-0.67
2022-12-20T03:05:29.243Z,-0.74
2022-12-20T03:07:57.414Z,-0.75
2022-12-20T03:10:25.670Z,-0.77
2022-12-20T03:12:53.910Z,-0.71
2022-12-20T03:15:22.137Z,-0.69
2022-12-20T03:17:51.702Z,-0.66
2022-12-20T03:20:20.124Z,-0.76
2022-12-20T03:22:48.302Z,-0.68
2022-12-20T03:25:16.419Z,-0.74
2022-12-20T03:27:44.492Z,-0.77
2022-12-20T03:30:13.832Z,-0.83
2022-12-20T03:32:42.014Z,-0.86
2022-12-20T03:35:11.850Z,-0.86
2022-12-20T03:37:40.220Z,-0.82
2022-12-20T03:40:09.833Z,-0.79
2022-12-20T03:42:38.960Z,-0.76
2022-12-20T03:45:08.354Z,-0.69
2022-12-20T03:47:38.029Z,-0.68
2022-12-20T03:50:07.727Z,-0.74
2022-12-20T03:52:37.444Z,-0.75
2022-12-20T03:55:06.535Z,-0.74
2022-12-20T03:57:34.754Z,-0.76
2022-12-20T04:00:02.985Z,-0.73
2022-12-20T04:02:31.287Z,-0.76
2022-12-20T04:04:59.556Z,-0.83
2022-12-20T04:07:27.865Z,-0.80
2022-12-20T04:09:57.332Z,-0.85
2022-12-20T04:12:25.391Z,-0.91
2022-12-20T04:14:53.550Z,-0.96
2022-12-20T04:17:21.671Z,-1.00
2022-12-20T04:19:49.761Z,-1.03
2022-12-20T04:22:17.917Z,-1.13
2022-12-20T04:24:46.017Z,-1.15
2022-12-20T04:27:15.496Z,-1.07
2022-12-20T04:29:43.602Z,-0.98
2022-12-20T04:32:11.764Z,-0.99
2022-12-20T04:34:39.967Z,-1.02
2022-12-20T04:37:08.088Z,-0.95
2022-12-20T04:39:36.257Z,-0.90
2022-12-20T04:42:04.340Z,-1.05
2022-12-20T04:44:33.913Z,-0.91
2022-12-20T04:47:02.291Z,-1.02
2022-12-20T04:49:30.448Z,-1.12
2022-12-20T04:52:19.162Z,-0.96
2022-12-20T04:54:46.618Z,-0.88
2022-12-20T04:57:14.871Z,-0.79
2022-12-20T04:59:44.399Z,-0.75
2022-12-20T05:02:12.770Z,-0.65
2022-12-20T05:04:40.978Z,-0.64
2022-12-20T05:07:09.134Z,-0.59
2022-12-20T05:09:37.364Z,-0.59
2022-12-20T05:12:05.763Z,-0.58
2022-12-20T05:14:33.955Z,-0.67
2022-12-20T05:17:03.561Z,-0.68
2022-12-20T05:19:31.702Z,-0.56
2022-12-20T05:22:17.289Z,-0.64
2022-12-20T05:25:02.853Z,-0.62
2022-12-20T05:27:30.943Z,-0.62
2022-12-20T05:29:59.045Z,-0.56
2022-12-20T05:32:28.578Z,-0.47
2022-12-20T05:34:56.810Z,-0.48
2022-12-20T05:37:24.944Z,-0.58
2022-12-20T05:39:53.094Z,-0.52
2022-12-20T05:42:21.356Z,-0.54
2022-12-20T05:44:49.444Z,-0.52
2022-12-20T05:47:17.546Z,-0.44
2022-12-20T05:49:47.146Z,-0.58
2022-12-20T05:52:15.328Z,-0.47
2022-12-20T05:54:43.520Z,-0.41
2022-12-20T05:57:11.879Z,-0.31
2022-12-20T05:59:40.794Z,-0.37
2022-12-20T06:02:10.721Z,-0.31
2022-12-20T06:04:39.447Z,-0.19
2022-12-20T06:07:08.963Z,-0.17
2022-12-20T06:09:37.134Z,-0.09
2022-12-20T06:12:06.391Z,-0.10
2022-12-20T06:14:34.629Z,-0.02
2022-12-20T06:17:03.022Z,0.01
2022-12-20T06:19:31.147Z,0.13
2022-12-20T06:21:59.327Z,0.16
2022-12-20T06:24:28.864Z,0.21
2022-12-20T06:26:56.994Z,0.13
2022-12-20T06:29:25.113Z,0.09
2022-12-20T06:31:53.402Z,0.13
2022-12-20T06:34:21.905Z,0.02
2022-12-20T06:36:49.979Z,-0.06
2022-12-20T06:39:18.265Z,-0.03
2022-12-20T06:41:47.914Z,0.14
2022-12-20T06:44:16.072Z,0.32
2022-12-20T06:46:44.259Z,0.50
2022-12-20T06:49:12.384Z,0.46
2022-12-20T06:51:40.456Z,0.47
2022-12-20T06:54:08.692Z,0.57
2022-12-20T06:56:41.254Z,0.52
2022-12-20T06:59:11.200Z,0.45
2022-12-20T07:01:39.617Z,0.34
2022-12-20T07:04:08.104Z,0.34
2022-12-20T07:06:36.204Z,0.33
2022-12-20T07:09:04.427Z,0.44
2022-12-20T07:11:32.468Z,0.39
2022-12-20T07:14:00.696Z,0.43
2022-12-20T07:16:32.268Z,0.50
2022-12-20T07:19:00.759Z,0.45
2022-12-20T07:21:29.293Z,0.52
2022-12-20T07:23:57.578Z,0.59
2022-12-20T07:26:25.732Z,0.67
2022-12-20T07:28:54.286Z,0.69
2022-12-20T07:31:22.491Z,0.73
2022-12-20T07:33:52.471Z,0.76
2022-12-20T07:36:20.877Z,0.85
2022-12-20T07:38:49.145Z,1.00
2022-12-20T07:41:19.159Z,1.07
2022-12-20T07:43:47.778Z,1.21
2022-12-20T07:46:17.061Z,1.30
2022-12-20T07:48:45.855Z,1.27
2022-12-20T07:51:20.063Z,1.43
2022-12-20T07:53:51.920Z,1.52
2022-12-20T07:56:22.151Z,1.55
2022-12-20T07:58:52.937Z,1.55
2022-12-20T08:01:22.627Z,1.72
2022-12-20T08:03:54.618Z,1.74
2022-12-20T08:06:24.242Z,1.91
2022-12-20T08:08:58.575Z,2.16
2022-12-20T08:11:29.153Z,2.22
2022-12-20T08:13:58.479Z,2.45
2022-12-20T08:16:26.958Z,2.47
2022-12-20T08:18:55.123Z,2.54
2022-12-20T08:21:24.694Z,2.51
2022-12-20T08:23:53.075Z,2.62
2022-12-20T08:26:21.272Z,2.73
2022-12-20T08:28:49.427Z,2.55
2022-12-20T08:31:17.726Z,2.46
2022-12-20T08:33:45.880Z,2.39
2022-12-20T08:36:15.354Z,2.43
2022-12-20T08:38:44.981Z,2.53
2022-12-20T08:41:15.171Z,2.55
2022-12-20T08:43:43.901Z,2.60
2022-12-20T08:46:13.279Z,2.50
2022-12-20T08:48:41.616Z,2.41
2022-12-20T08:51:12.403Z,2.37
2022-12-20T08:53:41.469Z,2.57
2022-12-20T08:56:13.079Z,2.75
2022-12-20T08:58:42.860Z,2.65
2022-12-20T09:01:13.333Z,2.67
2022-12-20T09:03:42.354Z,2.70
2022-12-20T09:06:12.300Z,2.76
2022-12-20T09:08:41.497Z,2.83
2022-12-20T09:11:13.715Z,2.85
2022-12-20T09:13:44.428Z,2.80
2022-12-20T09:16:14.674Z,2.82
2022-12-20T09:18:42.940Z,2.79
2022-12-20T09:21:12.455Z,2.90
2022-12-20T09:23:40.607Z,3.02
2022-12-20T09:26:13.066Z,3.16
2022-12-20T09:28:41.646Z,3.34
2022-12-20T09:31:12.774Z,3.37
2022-12-20T09:33:41.154Z,3.44
2022-12-20T09:36:13.006Z,3.44
2022-12-20T09:38:41.230Z,3.49
2022-12-20T09:41:26.638Z,3.62
2022-12-20T09:43:56.161Z,3.51
2022-12-20T09:46:26.242Z,3.50
2022-12-20T09:48:55.390Z,3.75
2022-12-20T09:51:50.908Z,3.67
2022-12-20T09:54:30.126Z,3.83
2022-12-20T09:57:08.193Z,3.68
2022-12-20T09:59:42.301Z,3.78
2022-12-20T10:02:55.281Z,3.75
2022-12-20T10:05:06.938Z,3.62
2022-12-20T10:07:41.891Z,3.86
2022-12-20T10:10:29.630Z,3.82
2022-12-20T10:13:12.072Z,3.70
2022-12-20T10:15:47.416Z,3.86
2022-12-20T10:18:29.337Z,3.99
2022-12-20T10:21:01.913Z,4.03
2022-12-20T10:23:34.949Z,3.86
2022-12-20T10:26:03.175Z,3.87
2022-12-20T10:28:36.425Z,3.94
2022-12-20T10:31:08.168Z,3.99
2022-12-20T10:33:36.682Z,4.11
2022-12-20T10:36:27.236Z,4.28
2022-12-20T10:38:57.048Z,4.31
2022-12-20T10:41:26.653Z,4.32
2022-12-20T10:44:02.763Z,4.30
2022-12-20T10:46:40.514Z,4.19
2022-12-20T10:49:28.858Z,4.23
2022-12-20T10:51:59.449Z,4.34
2022-12-20T10:54:32.799Z,4.17
2022-12-20T10:57:02.841Z,4.35
2022-12-20T10:59:36.403Z,4.17
2022-12-20T11:02:36.731Z,4.27
2022-12-20T11:05:22.946Z,4.40
2022-12-20T11:10:46.346Z,4.18
2022-12-20T11:13:24.463Z,4.08
2022-12-20T11:15:57.847Z,4.22
2022-12-20T11:18:35.330Z,4.42
2022-12-20T11:21:21.541Z,4.40
2022-12-20T11:24:02.377Z,4.21
2022-12-20T11:26:44.785Z,4.35
2022-12-20T11:29:27.182Z,4.46
2022-12-20T11:32:04.733Z,4.53
2022-12-20T11:34:44.419Z,4.61
2022-12-20T11:37:25.032Z,4.25
2022-12-20T11:40:12.156Z,4.23
2022-12-20T11:42:56.333Z,4.21
2022-12-20T11:45:31.473Z,4.31
2022-12-20T11:48:18.901Z,4.32
2022-12-20T11:50:58.750Z,4.30
2022-12-20T11:53:33.879Z,4.49
2022-12-20T11:56:06.423Z,4.50
2022-12-20T11:58:46.379Z,4.24
2022-12-20T12:01:19.031Z,4.26
2022-12-20T12:04:00.316Z,4.14
2022-12-20T12:06:34.505Z,4.03
2022-12-20T12:09:14.036Z,4.02
2022-12-20T12:14:45.556Z,4.00
2022-12-20T12:17:23.829Z,3.89
2022-12-20T12:19:57.746Z,4.04
2022-12-20T12:22:32.347Z,4.31
2022-12-20T12:25:02.976Z,4.40
2022-12-20T12:27:31.526Z,4.47
2022-12-20T12:30:00.319Z,4.43
2022-12-20T12:32:36.067Z,4.21
2022-12-20T12:35:17.358Z,4.12
2022-12-20T12:37:56.358Z,4.00
2022-12-20T12:40:52.281Z,3.94
2022-12-20T12:43:42.888Z,3.93
2022-12-20T12:46:14.659Z,4.03
2022-12-20T12:48:47.531Z,4.16
2022-12-20T12:51:22.842Z,4.32
2022-12-20T12:53:52.629Z,4.30
2022-12-20T12:56:44.646Z,4.25
2022-12-20T12:59:41.260Z,4.18
2022-12-20T13:02:52.441Z,4.22
2022-12-20T13:05:35.841Z,4.24
2022-12-20T13:08:16.427Z,4.29
2022-12-20T13:11:01.001Z,4.04
2022-12-20T13:13:29.444Z,3.92
2022-12-20T13:16:13.274Z,3.83
2022-12-20T13:19:05.470Z,3.71
2022-12-20T13:21:40.931Z,3.71
2022-12-20T13:24:50.643Z,3.54
2022-12-20T13:27:28.337Z,3.61
2022-12-20T13:30:27.893Z,3.53
2022-12-20T13:33:05.121Z,3.37
2022-12-20T13:35:47.628Z,3.36
2022-12-20T13:38:39.400Z,3.32
2022-12-20T13:41:21.326Z,3.30
2022-12-20T13:43:52.211Z,3.16
2022-12-20T13:46:25.451Z,3.07
2022-12-20T13:48:57.006Z,3.05
2022-12-20T13:51:27.195Z,2.99
2022-12-20T13:53:57.585Z,2.98
2022-12-20T13:56:42.979Z,2.95
2022-12-20T13:59:16.771Z,2.90
2022-12-20T14:01:54.249Z,2.84
2022-12-20T14:04:23.257Z,2.83
2022-12-20T14:06:57.608Z,2.78
2022-12-20T14:09:31.621Z,2.80
2022-12-20T14:12:07.071Z,2.69
2022-12-20T14:14:38.813Z,2.60
2022-12-20T14:17:18.094Z,2.60
2022-12-20T14:19:46.338Z,2.44
2022-12-20T14:22:15.174Z,2.48
2022-12-20T14:24:45.951Z,2.44
2022-12-20T14:27:16.127Z,2.38
2022-12-20T14:29:47.260Z,2.35
2022-12-20T14:32:20.842Z,2.19
2022-12-20T14:34:49.400Z,2.18
2022-12-20T14:37:29.597Z,2.29
2022-12-20T14:40:01.623Z,2.17
2022-12-20T14:42:35.416Z,2.10
2022-12-20T14:45:17.427Z,2.07
2022-12-20T14:47:58.548Z,2.08
2022-12-20T14:50:30.797Z,2.03
2022-12-20T14:52:59.702Z,1.93
2022-12-20T14:55:34.054Z,1.90
2022-12-20T14:58:23.625Z,1.80
2022-12-20T15:00:58.891Z,1.75
2022-12-20T15:03:27.525Z,1.80
2022-12-20T15:05:57.433Z,1.84
2022-12-20T15:08:30.933Z,1.80
2022-12-20T15:11:03.612Z,1.74
2022-12-20T15:13:35.157Z,1.77
2022-12-20T15:16:05.861Z,1.71
2022-12-20T15:18:34.550Z,1.65
2022-12-20T15:21:06.145Z,1.56
2022-12-20T15:23:35.111Z,1.61
2022-12-20T15:26:03.582Z,1.61
2022-12-20T15:28:33.420Z,1.57
2022-12-20T15:31:01.600Z,1.50
2022-12-20T15:33:33.934Z,1.49
2022-12-20T15:36:02.198Z,1.43
2022-12-20T15:38:54.575Z,1.46
2022-12-20T15:41:22.952Z,1.48
2022-12-20T15:43:56.541Z,1.49
2022-12-20T15:46:25.167Z,1.53
2022-12-20T15:48:54.058Z,1.50
2022-12-20T15:51:28.634Z,1.41
2022-12-20T15:53:56.800Z,1.35
2022-12-20T15:56:26.627Z,1.40
2022-12-20T15:58:56.916Z,1.38
2022-12-20T16:01:31.205Z,1.44
2022-12-20T16:04:05.415Z,1.40
2022-12-20T16:06:33.805Z,1.33
2022-12-20T16:09:01.955Z,1.38
2022-12-20T16:11:31.828Z,1.33
2022-12-20T16:14:01.710Z,1.29
2022-12-20T16:16:32.026Z,1.31
2022-12-20T16:19:01.660Z,1.28
2022-12-20T16:21:33.683Z,1.22
2022-12-20T16:24:01.894Z,1.36
2022-12-20T16:26:30.439Z,1.41
2022-12-20T16:28:58.760Z,1.38
2022-12-20T16:31:31.089Z,1.38
2022-12-20T16:34:00.944Z,1.46
2022-12-20T16:36:29.338Z,1.41
2022-12-20T16:38:57.683Z,1.36
2022-12-20T16:41:27.995Z,1.28
2022-12-20T16:43:57.292Z,1.15
2022-12-20T16:46:28.489Z,1.17
2022-12-20T16:48:58.263Z,1.10
2022-12-20T16:51:28.718Z,1.02
2022-12-20T16:56:47.681Z,0.99
2022-12-20T16:59:19.877Z,0.95
2022-12-20T17:01:53.985Z,0.93
2022-12-20T17:04:22.442Z,0.93
2022-12-20T17:06:50.900Z,0.95
2022-12-20T17:09:20.318Z,0.82
2022-12-20T17:11:50.237Z,0.81
2022-12-20T17:14:20.092Z,0.82
2022-12-20T17:16:48.632Z,0.80
2022-12-20T17:19:18.235Z,0.82
2022-12-20T17:24:35.510Z,0.71
2022-12-20T17:27:04.015Z,0.67
2022-12-20T17:29:32.162Z,0.58
2022-12-20T17:32:00.439Z,0.62
2022-12-20T17:34:31.940Z,0.48
2022-12-20T17:37:00.245Z,0.39
2022-12-20T17:39:28.312Z,0.47
2022-12-20T17:41:56.649Z,0.48
2022-12-20T17:44:26.756Z,0.61
2022-12-20T17:46:56.326Z,0.64
2022-12-20T17:49:24.991Z,0.60
2022-12-20T17:51:56.313Z,0.56
2022-12-20T17:54:26.620Z,0.53
2022-12-20T17:56:55.208Z,0.48
2022-12-20T17:59:23.564Z,0.56
2022-12-20T18:01:52.014Z,0.52
2022-12-20T18:04:20.872Z,0.53
2022-12-20T18:06:49.018Z,0.45
2022-12-20T18:09:20.573Z,0.52
2022-12-20T18:11:49.101Z,0.45
2022-12-20T18:14:17.583Z,0.46
2022-12-20T18:16:46.043Z,0.38
2022-12-20T18:19:18.142Z,0.38
2022-12-20T18:21:46.319Z,0.34
2022-12-20T18:24:16.012Z,0.38
2022-12-20T18:26:45.987Z,0.41
2022-12-20T18:29:14.760Z,0.34
2022-12-20T18:31:43.036Z,0.29
2022-12-20T18:34:11.446Z,0.19
2022-12-20T18:36:39.781Z,0.21
2022-12-20T18:39:09.554Z,0.24
2022-12-20T18:41:38.039Z,0.17
2022-12-20T18:44:08.306Z,0.23
2022-12-20T18:46:36.640Z,0.22
2022-12-20T18:49:07.155Z,0.08
2022-12-20T18:51:37.771Z,0.02
2022-12-20T18:54:08.772Z,0.07
2022-12-20T18:56:39.082Z,0.08
2022-12-20T18:59:12.417Z,0.06
2022-12-20T19:01:42.993Z,0.03
2022-12-20T19:04:12.299Z,0.03
2022-12-20T19:06:41.374Z,0.05
2022-12-20T19:09:11.726Z,0.11
2022-12-20T19:11:41.111Z,-0.01
2022-12-20T19:14:15.883Z,-0.04
2022-12-20T19:16:44.149Z,-0.02
2022-12-20T19:19:12.661Z,-0.01
2022-12-20T19:21:42.893Z,-0.04
2022-12-20T19:24:13.033Z,0.00
2022-12-20T19:26:42.257Z,-0.01
2022-12-20T19:29:11.761Z,-0.13
2022-12-20T19:31:41.345Z,-0.08
2022-12-20T19:34:12.891Z,-0.09
2022-12-20T19:36:42.748Z,-0.19
2022-12-20T19:39:15.313Z,-0.21
2022-12-20T19:41:43.386Z,-0.19
2022-12-20T19:44:11.773Z,-0.23
2022-12-20T19:46:41.659Z,-0.31
2022-12-20T19:49:09.974Z,-0.30
2022-12-20T19:51:38.256Z,-0.22
2022-12-20T19:54:06.735Z,-0.15
2022-12-20T19:56:37.016Z,-0.22
2022-12-20T19:59:05.102Z,-0.20
2022-12-20T20:01:33.423Z,-0.19
2022-12-20T20:04:03.876Z,-0.14
2022-12-20T20:06:31.993Z,-0.18
2022-12-20T20:09:00.726Z,-0.11
2022-12-20T20:11:29.362Z,-0.17
2022-12-20T20:13:57.818Z,-0.21
2022-12-20T20:16:26.567Z,-0.19
2022-12-20T20:18:54.955Z,-0.19
2022-12-20T20:21:24.721Z,-0.24
2022-12-20T20:24:03.403Z,-0.25
2022-12-20T20:26:31.851Z,-0.32
2022-12-20T20:29:01.809Z,-0.26
2022-12-20T20:31:30.517Z,-0.23
2022-12-20T20:34:00.886Z,-0.29
2022-12-20T20:36:30.859Z,-0.23
2022-12-20T20:38:58.979Z,-0.15
2022-12-20T20:41:28.335Z,-0.22
2022-12-20T20:43:56.409Z,-0.32
2022-12-20T20:46:24.663Z,-0.37
2022-12-20T20:48:52.816Z,-0.37
2022-12-20T20:51:21.125Z,-0.28
2022-12-20T20:53:50.620Z,-0.21
2022-12-20T20:56:19.209Z,-0.17
2022-12-20T20:58:47.360Z,-0.16
2022-12-20T21:01:15.683Z,-0.08
2022-12-20T21:03:43.985Z,-0.05
2022-12-20T21:09:02.759Z,-0.07
2022-12-20T21:11:31.177Z,-0.12
2022-12-20T21:13:59.406Z,-0.08
2022-12-20T21:16:29.007Z,-0.18
2022-12-20T21:18:58.882Z,-0.14
2022-12-20T21:21:27.945Z,-0.11
2022-12-20T21:23:56.955Z,-0.11
2022-12-20T21:26:26.562Z,-0.17
2022-12-20T21:28:58.147Z,-0.17
2022-12-20T21:31:26.454Z,-0.23
2022-12-20T21:33:55.449Z,-0.23
2022-12-20T21:36:24.450Z,-0.22
2022-12-20T21:38:54.009Z,-0.25
2022-12-20T21:41:24.316Z,-0.23
2022-12-20T21:43:56.949Z,-0.21
2022-12-20T21:46:25.452Z,-0.17
2022-12-20T21:48:54.262Z,-0.17
2022-12-20T21:51:24.762Z,-0.10
2022-12-20T21:53:57.371Z,-0.07
2022-12-20T21:56:27.368Z,0.02
2022-12-20T21:58:57.567Z,0.10
2022-12-20T22:01:27.429Z,0.14
2022-12-20T22:03:57.095Z,0.21
2022-12-20T22:06:25.653Z,0.14
2022-12-20T22:08:54.131Z,0.11
2022-12-20T22:11:22.433Z,0.14
2022-12-20T22:13:55.633Z,0.13
2022-12-20T22:16:26.686Z,0.17
2022-12-20T22:18:56.312Z,0.24
2022-12-20T22:21:26.686Z,0.16
2022-12-20T22:23:56.321Z,-0.09
2022-12-20T22:26:27.436Z,-0.22
2022-12-20T22:28:57.598Z,-0.41
2022-12-20T22:31:27.945Z,-0.45
2022-12-20T22:33:57.455Z,-0.43
2022-12-20T22:36:26.472Z,-0.56
2022-12-20T22:38:55.949Z,-0.57
2022-12-20T22:41:25.423Z,-0.40
2022-12-20T22:43:54.439Z,-0.36
2022-12-20T22:46:22.834Z,-0.33
2022-12-20T22:48:52.462Z,-0.30
2022-12-20T22:51:24.893Z,-0.27
2022-12-20T22:53:53.883Z,-0.28
2022-12-20T22:56:22.739Z,-0.26
2022-12-20T22:58:51.463Z,-0.16
2022-12-20T23:01:21.753Z,-0.17
2022-12-20T23:03:50.461Z,-0.25
2022-12-20T23:06:21.916Z,-0.24
2022-12-20T23:08:50.562Z,-0.27
2022-12-20T23:11:38.647Z,-0.27
2022-12-20T23:14:25.301Z,-0.30
2022-12-20T23:16:53.446Z,-0.32
2022-12-20T23:19:21.765Z,-0.29
2022-12-20T23:22:23.718Z,-0.31
2022-12-20T23:24:52.039Z,-0.23
2022-12-20T23:27:20.230Z,-0.22
2022-12-20T23:29:52.678Z,-0.25
2022-12-20T23:32:21.027Z,-0.21
2022-12-20T23:34:49.170Z,-0.21
2022-12-20T23:37:18.826Z,-0.18
2022-12-20T23:39:46.989Z,-0.21
2022-12-20T23:42:15.521Z,-0.25
2022-12-20T23:44:43.609Z,-0.24
2022-12-20T23:47:17.157Z,-0.26
2022-12-20T23:49:46.829Z,-0.28
2022-12-20T23:52:15.178Z,-0.12
2022-12-20T23:54:44.690Z,-0.03
2022-12-20T23:57:14.062Z,0.06
2022-12-20T23:59:42.251Z,0.10
